Decoded Metar for KMYJ ( in ) (IATA:) | Meteo·Mobile Aviation Weather
aviador You're here:

KMYJ Decoded Metar

in
Report Time2020-02-25 21:15:00
UTC Time2020-02-25 21:23:50
Flight Rules ifr IFR
Wind360° at 09 kt
W.Decomp.*RWY 36: 9.0 kt HW 0 kt LCW
RWY 06: 4.5 kt HW 7.8 kt LCW
Visibility9999 m
Phenomena:Light Rain
Clouds:Overcast 009 Hf
Expected CloudBase > 400 ft AGL from Temp-Dew spread
Ceiling900 ft
Temp01°C
Dew Point00°C (93% RH)
AAT-4.2°C
QNH1015 hPa
Raw Report
KMYJ 252115Z AUTO 36009KT 7SM -RA OVC009 01/00 A2998 RMK AO2=

Extra information for KMYJ:More info

Social comments